Flight Track Log - Related Links

Times and Time Zones

All times are in EDT time to prevent confusion due to time zone crossing. See the GJS6252 flight status page for this flight to view local times or setup timezone preferences in your user account.

Time Position Orientation Groundspeed Altitude Reporting Facility
EDT Latitude Longitude Course Direction KTS MPH feet Rate Location/Type
Fri 06:47:28 PM 39.0500 -84.6833 270° West 151 174 1,500  Level Cincinnati TRACON
Fri 06:48:16 PM 39.0500 -84.7333 270° West 167 192 3,000 2,063 Climbing Cincinnati TRACON
Fri 06:49:04 PM 39.0833 -84.7833 311° West 245 282 4,800 2,167 Climbing Cincinnati TRACON
Fri 06:50:04 PM 39.1500 -84.8167 339° North 278 320 6,900 2,079 Climbing Cincinnati TRACON
Fri 06:52:00 PM 39.1945 -84.5928 76° East  Level Estimated
Fri 06:52:26 PM 39.3042 -84.6731 76° East 322 371 11,800  Level Indianapolis Center
Fri 06:53:28 PM 39.3844 -84.5886 76° East 363 418 13,600 1,773 Climbing Indianapolis Center
Fri 06:54:00 PM 39.3447 -84.4548 76° East  Level Estimated
Fri 06:56:33 PM 39.6322 -84.3250 39° Northeast 385 443 19,100  Level Indianapolis Center
Fri 06:57:34 PM 39.7206 -84.2361 38° Northeast 395 455 20,900 1,415 Climbing Indianapolis Center
Fri 06:58:36 PM 39.8081 -84.1444 39° Northeast 399 459 22,000 1,024 Climbing Indianapolis Center
Fri 06:59:37 PM 39.8961 -84.0397 42° Northeast 423 487 23,000 976 Climbing Indianapolis Center
Fri 07:00:39 PM 39.9850 -83.9306 43° Northeast 431 496 24,000 976 Climbing Indianapolis Center
Fri 07:01:40 PM 40.0758 -83.8167 44° Northeast 441 507 25,000 1,024 Climbing Indianapolis Center
Fri 07:02:42 PM 40.1683 -83.7011 44° Northeast 450 518 26,100 1,024 Climbing Indianapolis Center
Fri 07:03:43 PM 40.2611 -83.5825 44° Northeast 457 526 27,100 927 Climbing Indianapolis Center
Fri 07:04:45 PM 40.3703 -83.4442 44° Northeast 460 529 28,000 878 Climbing Indianapolis Center
Fri 07:05:46 PM 40.4658 -83.3231 44° Northeast 469 540 28,900 829 Climbing Indianapolis Center
Fri 07:06:48 PM 40.5625 -83.1992 44° Northeast 476 548 29,700 780 Climbing Indianapolis Center
Fri 07:07:49 PM 40.6606 -83.0742 44° Northeast 481 554 30,500 780 Climbing Indianapolis Center
Fri 07:08:51 PM 40.7575 -82.9492 44° Northeast 483 556 31,300 732 Climbing Indianapolis Center
Fri 07:09:52 PM 40.8539 -82.8242 44° Northeast 482 555 32,000 341 Climbing Indianapolis Center
Fri 07:10:54 PM 40.9394 -82.6781 52° Northeast 498 573 32,000  Level Indianapolis Center
Fri 07:12:08 PM 41.0164 -82.4875 62° Northeast 492 566 32,000  Level Cleveland Center
Fri 07:13:08 PM 41.0858 -82.3269 60° Northeast 498 573 32,000  Level Cleveland Center
Fri 07:14:08 PM 41.1528 -82.1606 62° Northeast 498 573 32,000  Level Cleveland Center
Fri 07:15:08 PM 41.2258 -81.9828 61° Northeast 498 573 32,000 100 Level Cleveland Center
Fri 07:16:08 PM 41.2925 -81.8211 61° Northeast 493 567 32,200 650 Climbing Cleveland Center
Fri 07:17:08 PM 41.3608 -81.6564 61° Northeast 493 567 33,300 1,000 Climbing Cleveland Center
Fri 07:18:08 PM 41.4164 -81.5106 63° Northeast 505 581 34,200 950 Climbing Cleveland Center
Fri 07:19:08 PM 41.4800 -81.3536 62° Northeast 488 562 35,200 1,000 Climbing Cleveland Center
Fri 07:20:08 PM 41.5414 -81.1961 62° Northeast 476 548 36,200 750 Climbing Cleveland Center
Fri 07:21:08 PM 41.6025 -81.0386 63° Northeast 470 541 36,700 400 Climbing Cleveland Center
Fri 07:22:08 PM 41.6678 -80.8806 61° Northeast 470 541 37,000 150 Climbing Cleveland Center
Fri 07:23:08 PM 41.7306 -80.7167 63° Northeast 475 547 37,000  Level Cleveland Center
Fri 07:24:08 PM 41.7994 -80.5358 63° Northeast 480 552 37,000  Level Cleveland Center
Fri 07:25:08 PM 41.8619 -80.3742 63° Northeast 487 560 37,000  Level Cleveland Center
Fri 07:26:08 PM 41.9261 -80.2092 62° Northeast 487 560 37,000  Level Cleveland Center
Fri 07:27:08 PM 41.9881 -80.0497 62° Northeast 487 560 37,000  Level Cleveland Center
Fri 07:28:08 PM 42.0497 -79.8869 63° Northeast 481 554 37,000  Level Cleveland Center
Fri 07:29:08 PM 42.1131 -79.7239 62° Northeast 481 554 37,000  Level Cleveland Center
Fri 07:30:08 PM 42.1722 -79.5661 63° Northeast 476 548 37,000  Level Cleveland Center
Fri 07:31:08 PM 42.2333 -79.4025 63° Northeast 476 548 37,000  Level Cleveland Center
Fri 07:32:08 PM 42.2919 -79.2386 64° Northeast 471 542 37,000  Level Cleveland Center
Fri 07:33:08 PM 42.3525 -79.0772 63° Northeast 471 542 37,000  Level Cleveland Center
Fri 07:34:08 PM 42.4147 -78.9125 63° Northeast 476 548 37,000  Level Cleveland Center
Fri 07:35:08 PM 42.4667 -78.7650 64° Northeast 476 548 37,000  Level Cleveland Center
Fri 07:36:08 PM 42.5267 -78.6025 63° Northeast 471 542 37,000  Level Cleveland Center
Fri 07:37:08 PM 42.5861 -78.4372 64° Northeast 471 542 37,000  Level Cleveland Center
Fri 07:38:08 PM 42.6475 -78.2714 63° Northeast 471 542 37,000  Level Cleveland Center
Fri 07:39:08 PM 42.7047 -78.1081 64° Northeast 471 542 37,000 -300 Level Cleveland Center
Fri 07:40:08 PM 42.7656 -77.9389 64° Northeast 471 542 36,400 -800 Descending Cleveland Center
Fri 07:41:08 PM 42.8278 -77.7550 65° Northeast 477 549 35,400 -1,000 Descending Cleveland Center
Fri 07:42:08 PM 42.8861 -77.5822 65° Northeast 482 555 34,400 -1,000 Descending Cleveland Center
Fri 07:43:08 PM 42.9356 -77.4069 69° East 488 562 33,400 -420 Descending Cleveland Center
Fri 07:45:28 PM 42.8464 -77.0086 107° East 472 543 33,000 -120 Descending Boston Center
Fri 07:46:28 PM 42.7672 -76.8500 124° Southeast 486 559 33,000  Level Boston Center
Fri 07:47:28 PM 42.6919 -76.6892 122° Southeast 499 574 33,000  Level Boston Center
Fri 07:48:28 PM 42.6442 -76.5108 110° East 504 580 33,000  Level Boston Center
Fri 07:49:28 PM 42.6194 -76.3258 100° East 498 573 33,000 -50 Level Boston Center
Fri 07:50:28 PM 42.5944 -76.1436 100° East 491 565 32,900 -591 Descending Boston Center
Fri 07:51:40 PM 42.5650 -75.9500 102° East 497 572 31,700 -1,318 Descending Boston Center
Fri 07:52:40 PM 42.5322 -75.7228 101° East 509 586 30,000 -1,600 Descending Boston Center
Fri 07:53:40 PM 42.5083 -75.5356 100° East 509 586 28,500 -1,500 Descending Boston Center
Fri 07:54:40 PM 42.4822 -75.3428 100° East 509 586 27,000 -1,350 Descending Boston Center
Fri 07:55:40 PM 42.4522 -75.2033 106° East 498 573 25,800 -1,500 Descending Boston Center
Fri 07:56:40 PM 42.3836 -75.0150 116° Southeast 475 547 24,000 -1,550 Descending Boston Center
Fri 07:57:40 PM 42.3244 -74.8608 117° Southeast 465 535 22,700 -1,250 Descending Boston Center
Fri 07:58:40 PM 42.2672 -74.7069 117° Southeast 457 526 21,500 -1,091 Descending Boston Center
Fri 07:59:52 PM 42.2119 -74.5508 116° Southeast 457 526 20,300 -1,091 Descending Boston Center
Fri 08:00:52 PM 42.1403 -74.3608 117° Southeast 445 512 19,100 -650 Descending Boston Center
Fri 08:01:52 PM 42.0567 -74.2436 134° Southeast 419 482 19,000 -50 Descending Boston Center
Fri 08:02:52 PM 41.9575 -74.1878 157° South 427 491 19,000 -300 Level Boston Center
Fri 08:03:52 PM 41.8419 -74.1178 156° South 421 484 18,400 -1,350 Descending Boston Center
Fri 08:04:52 PM 41.7428 -74.0622 157° South 402 463 16,300 -2,000 Descending Boston Center
Fri 08:05:52 PM 41.6558 -74.0100 156° South 383 441 14,400 -2,050 Descending Boston Center
Fri 08:06:52 PM 41.5544 -73.9519 157° South 366 421 12,200 -1,809 Descending Boston Center
Fri 08:08:08 PM 41.4500 -73.8833 154° Southeast 326 375 10,300 -1,456 Descending New TRACON
Fri 08:09:08 PM 41.3667 -73.8333 156° South 297 342 8,900 -1,150 Descending New TRACON
Fri 08:10:08 PM 41.3000 -73.7667 143° Southeast 303 349 8,000 -450 Descending New TRACON
Fri 08:11:08 PM 41.2333 -73.7000 143° Southeast 304 350 8,000 -333 Level New TRACON
Fri 08:12:14 PM 41.1500 -73.6500 156° South 292 336 7,300 -1,200 Descending New TRACON
Fri 08:13:08 PM 41.0833 -73.6833 201° Southwest 262 302 5,600 -1,300 Descending New TRACON
Fri 08:14:14 PM 41.0167 -73.7167 201° Southwest 225 259 4,700 -800 Descending New TRACON
Fri 08:15:08 PM 40.9667 -73.7333 194° South 180 207 4,000 -850 Descending New TRACON
Fri 08:16:14 PM 40.9167 -73.7500 194° South 177 204 3,000 -857 Descending New TRACON
Fri 08:17:14 PM 40.8833 -73.7833 217° Southwest 169 194 2,200 -767 Descending New TRACON
Fri 08:19:14 PM 40.8167 -73.8500 217° Southwest 119 137 700 -690 Descending New TRACON
Fri 08:20:08 PM 40.8000 -73.8667 217° Southwest 122 140 200 -556 Descending New TRACON
Fri 08:22:00 PM 40.7772 -73.8726 180° South  Level Estimated
Fri 08:29:00 PM 40.7772 -73.8726 180° South  Level Estimated

Login

Don't have an account? Register now (free) for customized features, flight alerts, and more!